createdAt,value
2018-12-31T00:00:54.019Z,103087.00
2018-12-31T00:03:23.351Z,103075.19
2018-12-31T00:05:53.438Z,103074.75
2018-12-31T00:08:21.960Z,103076.97
2018-12-31T00:10:51.263Z,103074.75
2018-12-31T00:13:20.512Z,103074.75
2018-12-31T00:15:49.879Z,103083.13
2018-12-31T00:18:19.159Z,103079.84
2018-12-31T00:20:48.469Z,103082.34
2018-12-31T00:23:17.713Z,103075.69
2018-12-31T00:25:47.197Z,103080.96
2018-12-31T00:28:16.551Z,103081.80
2018-12-31T00:30:45.851Z,103074.75
2018-12-31T00:33:15.107Z,103078.70
2018-12-31T00:35:44.367Z,103073.39
2018-12-31T00:38:13.633Z,103068.53
2018-12-31T00:40:42.963Z,103068.56
2018-12-31T00:43:12.273Z,103066.34
2018-12-31T00:45:41.570Z,103072.48
2018-12-31T00:48:10.871Z,103069.88
2018-12-31T00:50:40.180Z,103066.81
2018-12-31T00:53:09.489Z,103063.30
2018-12-31T00:55:38.775Z,103056.64
2018-12-31T00:58:08.062Z,103060.59
2018-12-31T01:00:37.320Z,103068.53
2018-12-31T01:03:06.596Z,103066.34
2018-12-31T01:05:35.839Z,103069.41
2018-12-31T01:08:05.145Z,103072.01
2018-12-31T01:10:34.466Z,103072.11
2018-12-31T01:13:03.732Z,103070.32
2018-12-31T01:15:33.006Z,103074.67
2018-12-31T01:18:02.331Z,103081.27
2018-12-31T01:20:31.678Z,103081.27
2018-12-31T01:23:00.952Z,103094.03
2018-12-31T01:25:30.220Z,103091.43
2018-12-31T01:27:59.580Z,103100.17
2018-12-31T01:30:28.906Z,103096.66
2018-12-31T01:32:58.148Z,103095.75
2018-12-31T01:35:27.518Z,103097.95
2018-12-31T01:37:56.768Z,103092.23
2018-12-31T01:40:26.068Z,103090.15
2018-12-31T01:42:55.317Z,103087.92
2018-12-31T01:45:24.605Z,103092.78
2018-12-31T01:47:53.965Z,103088.83
2018-12-31T01:50:23.157Z,103090.63
2018-12-31T01:52:52.413Z,103098.12
2018-12-31T01:55:21.656Z,103096.33
2018-12-31T01:57:51.001Z,103100.28
2018-12-31T02:00:20.241Z,103099.81
2018-12-31T02:02:49.515Z,103109.47
2018-12-31T02:05:18.762Z,103107.27
2018-12-31T02:07:48.109Z,103105.52
2018-12-31T02:10:17.313Z,103113.02
2018-12-31T02:12:46.595Z,103123.08
2018-12-31T02:15:15.848Z,103113.89
2018-12-31T02:17:45.203Z,103111.26
2018-12-31T02:20:14.431Z,103108.19
2018-12-31T02:22:43.705Z,103107.34
2018-12-31T02:25:12.953Z,103098.12
2018-12-31T02:27:42.199Z,103092.41
2018-12-31T02:30:11.493Z,103097.28
2018-12-31T02:32:40.796Z,103092.00
2018-12-31T02:35:10.071Z,103094.23
2018-12-31T02:37:39.323Z,103098.28
2018-12-31T02:40:08.623Z,103095.58
2018-12-31T02:42:37.898Z,103096.87
2018-12-31T02:45:07.325Z,103089.84
2018-12-31T02:47:36.564Z,103085.08
2018-12-31T02:50:06.332Z,103084.16
2018-12-31T02:52:35.572Z,103077.17
2018-12-31T02:55:04.929Z,103080.75
2018-12-31T02:57:34.155Z,103066.22
2018-12-31T03:00:04.070Z,103071.91
2018-12-31T03:02:33.303Z,103072.34
2018-12-31T03:05:02.636Z,103068.95
2018-12-31T03:07:31.902Z,103069.30
2018-12-31T03:10:01.231Z,103068.39
2018-12-31T03:12:30.491Z,103057.91
2018-12-31T03:14:59.747Z,103054.87
2018-12-31T03:17:29.010Z,103058.81
2018-12-31T03:19:58.279Z,103060.14
2018-12-31T03:22:27.534Z,103062.30
2018-12-31T03:24:56.836Z,103062.80
2018-12-31T03:27:26.122Z,103062.33
2018-12-31T03:29:55.384Z,103065.41
2018-12-31T03:32:24.634Z,103056.68
2018-12-31T03:34:53.917Z,103061.95
2018-12-31T03:37:23.250Z,103066.78
2018-12-31T03:39:52.643Z,103054.92
2018-12-31T03:42:21.929Z,103051.84
2018-12-31T03:44:51.178Z,103053.55
2018-12-31T03:47:20.546Z,103059.70
2018-12-31T03:49:49.798Z,103049.53
2018-12-31T03:52:19.158Z,103059.25
2018-12-31T03:54:48.426Z,103059.72
2018-12-31T03:57:17.692Z,103062.36
2018-12-31T03:59:46.958Z,103057.06
2018-12-31T04:02:16.191Z,103054.45
2018-12-31T04:04:45.561Z,103055.30
2018-12-31T04:07:14.786Z,103061.45
2018-12-31T04:09:44.061Z,103047.86
2018-12-31T04:12:13.299Z,103066.28
2018-12-31T04:14:42.563Z,103070.27
2018-12-31T04:17:11.826Z,103068.54
2018-12-31T04:19:41.083Z,103071.17
2018-12-31T04:22:10.359Z,103071.11
2018-12-31T04:24:39.608Z,103071.09
2018-12-31T04:27:08.875Z,103071.55
2018-12-31T04:29:38.144Z,103069.33
2018-12-31T04:32:07.378Z,103065.78
2018-12-31T04:34:36.643Z,103073.25
2018-12-31T04:37:05.964Z,103074.56
2018-12-31T04:39:35.236Z,103075.06
2018-12-31T04:42:04.524Z,103081.25
2018-12-31T04:44:33.800Z,103078.17
2018-12-31T04:47:03.375Z,103079.94
2018-12-31T04:49:32.650Z,103077.30
2018-12-31T04:52:01.936Z,103077.30
2018-12-31T04:54:31.180Z,103079.02
2018-12-31T04:57:00.439Z,103080.31
2018-12-31T04:59:29.756Z,103084.77
2018-12-31T05:01:59.073Z,103091.36
2018-12-31T05:04:28.361Z,103083.00
2018-12-31T05:06:57.652Z,103080.81
2018-12-31T05:09:26.904Z,103082.97
2018-12-31T05:11:56.136Z,103085.61
2018-12-31T05:14:25.419Z,103082.09
2018-12-31T05:16:54.666Z,103079.48
2018-12-31T05:19:23.939Z,103079.52
2018-12-31T05:21:53.170Z,103076.45
2018-12-31T05:24:22.430Z,103089.19
2018-12-31T05:26:51.674Z,103080.81
2018-12-31T05:29:20.957Z,103087.80
2018-12-31T05:31:50.258Z,103100.58
2018-12-31T05:34:19.509Z,103100.11
2018-12-31T05:36:48.820Z,103093.11
2018-12-31T05:39:18.067Z,103098.79
2018-12-31T05:41:47.360Z,103105.85
2018-12-31T05:44:16.592Z,103107.23
2018-12-31T05:46:45.846Z,103105.47
2018-12-31T05:49:15.179Z,103105.50
2018-12-31T05:51:44.456Z,103112.47
2018-12-31T05:54:13.714Z,103117.74
2018-12-31T05:56:43.093Z,103125.68
2018-12-31T05:59:12.467Z,103124.77
2018-12-31T06:01:41.801Z,103126.05
2018-12-31T06:04:11.066Z,103132.64
2018-12-31T06:06:40.347Z,103124.36
2018-12-31T06:09:09.577Z,103129.60
2018-12-31T06:11:38.858Z,103120.81
2018-12-31T06:14:08.105Z,103042.59
2018-12-31T06:16:37.368Z,103117.36
2018-12-31T06:19:06.627Z,103116.42
2018-12-31T06:21:35.893Z,103117.70
2018-12-31T06:24:05.159Z,103120.34
2018-12-31T06:26:34.430Z,103127.38
2018-12-31T06:29:03.727Z,103130.45
2018-12-31T06:31:32.965Z,103133.52
2018-12-31T06:34:02.243Z,103135.31
2018-12-31T06:36:31.569Z,103129.16
2018-12-31T06:39:00.850Z,103137.07
2018-12-31T06:41:30.122Z,103144.13
2018-12-31T06:43:59.507Z,103135.79
2018-12-31T06:46:28.789Z,103138.86
2018-12-31T06:48:58.023Z,103135.79
2018-12-31T06:51:27.296Z,103122.20
2018-12-31T06:53:56.557Z,103124.84
2018-12-31T06:56:25.804Z,103132.77
2018-12-31T06:58:55.059Z,103135.47
2018-12-31T07:01:24.321Z,103138.95
2018-12-31T07:03:53.578Z,103140.75
2018-12-31T07:06:22.825Z,103150.89
2018-12-31T07:08:52.186Z,103155.28
2018-12-31T07:11:21.457Z,103148.28
2018-12-31T07:13:50.697Z,103153.58
2018-12-31T07:16:20.117Z,103149.63
2018-12-31T07:18:49.376Z,103144.73
2018-12-31T07:21:18.680Z,103148.72
2018-12-31T07:23:47.949Z,103152.73
2018-12-31T07:26:17.282Z,103156.22
2018-12-31T07:28:46.595Z,103164.66
2018-12-31T07:31:15.866Z,103163.31
2018-12-31T07:33:45.126Z,103164.61
2018-12-31T07:36:14.380Z,103161.59
2018-12-31T07:38:43.684Z,103164.23
2018-12-31T07:41:12.947Z,103166.45
2018-12-31T07:43:42.316Z,103167.77
2018-12-31T07:46:11.587Z,103169.50
2018-12-31T07:48:40.884Z,103180.55
2018-12-31T07:51:10.144Z,103186.23
2018-12-31T07:53:39.405Z,103188.02
2018-12-31T07:56:08.667Z,103188.55
2018-12-31T07:58:38.008Z,103194.27
2018-12-31T08:01:07.237Z,103187.70
2018-12-31T08:03:36.480Z,103188.58
2018-12-31T08:06:05.789Z,103189.52
2018-12-31T08:08:35.048Z,103196.11
2018-12-31T08:11:04.322Z,103189.14
2018-12-31T08:13:33.590Z,103197.93
2018-12-31T08:16:02.904Z,103195.38
2018-12-31T08:18:32.158Z,103198.02
2018-12-31T08:21:01.520Z,103195.83
2018-12-31T08:23:30.790Z,103206.84
2018-12-31T08:26:00.118Z,103209.45
2018-12-31T08:28:29.389Z,103213.47
2018-12-31T08:30:58.693Z,103214.29
2018-12-31T08:33:28.004Z,103208.12
2018-12-31T08:35:57.265Z,103210.36
2018-12-31T08:38:26.576Z,103210.42
2018-12-31T08:40:55.847Z,103204.75
2018-12-31T08:43:25.175Z,103213.98
2018-12-31T08:45:54.446Z,103207.89
2018-12-31T08:48:23.719Z,103210.50
2018-12-31T08:50:53.005Z,103210.53
2018-12-31T08:53:22.281Z,103207.03
2018-12-31T08:55:51.719Z,103214.52
2018-12-31T08:58:21.045Z,103202.60
2018-12-31T09:00:50.277Z,103206.19
2018-12-31T09:03:19.622Z,103207.00
2018-12-31T09:05:48.871Z,103205.25
2018-12-31T09:08:18.253Z,103203.91
2018-12-31T09:10:47.521Z,103210.50
2018-12-31T09:13:16.799Z,103214.10
2018-12-31T09:15:46.091Z,103210.60
2018-12-31T09:18:15.423Z,103210.17
2018-12-31T09:20:44.717Z,103204.39
2018-12-31T09:23:13.985Z,103196.50
2018-12-31T09:25:43.274Z,103200.46
2018-12-31T09:28:12.521Z,103196.97
2018-12-31T09:30:41.796Z,103208.05
2018-12-31T09:33:11.064Z,103196.59
2018-12-31T09:35:40.361Z,103201.49
2018-12-31T09:38:09.594Z,103202.39
2018-12-31T09:40:38.838Z,103202.44
2018-12-31T09:43:08.102Z,103205.95
2018-12-31T09:45:37.376Z,103204.25
2018-12-31T09:48:06.667Z,103198.97
2018-12-31T09:50:35.906Z,103203.83
2018-12-31T09:53:05.172Z,103200.34
2018-12-31T09:55:34.410Z,103191.55
2018-12-31T09:58:03.671Z,103193.77
2018-12-31T10:00:32.995Z,103188.95
2018-12-31T10:03:02.266Z,103182.33
2018-12-31T10:05:31.538Z,103187.19
2018-12-31T10:08:00.816Z,103188.98
2018-12-31T10:10:30.062Z,103194.22
2018-12-31T10:12:59.341Z,103203.47
2018-12-31T10:15:28.590Z,103208.75
2018-12-31T10:17:57.830Z,103206.99
2018-12-31T10:20:27.103Z,103206.11
2018-12-31T10:22:56.420Z,103206.55
2018-12-31T10:25:25.688Z,103206.10
2018-12-31T10:27:54.980Z,103206.56
2018-12-31T10:30:24.247Z,103199.55
2018-12-31T10:32:53.530Z,103195.58
2018-12-31T10:35:22.865Z,103195.13
2018-12-31T10:37:52.234Z,103195.58
2018-12-31T10:40:21.547Z,103196.88
2018-12-31T10:42:50.780Z,103188.52
2018-12-31T10:45:20.068Z,103188.97
2018-12-31T10:47:49.321Z,103187.20
2018-12-31T10:50:18.632Z,103181.94
2018-12-31T10:52:47.890Z,103179.73
2018-12-31T10:55:17.234Z,103176.66
2018-12-31T10:57:46.521Z,103172.69
2018-12-31T11:00:15.795Z,103164.34
2018-12-31T11:02:45.080Z,103164.76
2018-12-31T11:05:14.346Z,103157.28
2018-12-31T11:07:43.648Z,103162.14
2018-12-31T11:10:12.885Z,103163.44
2018-12-31T11:12:42.156Z,103154.22
2018-12-31T11:15:11.442Z,103148.06
2018-12-31T11:17:40.721Z,103146.73
2018-12-31T11:20:09.981Z,103146.73
2018-12-31T11:22:39.394Z,103141.92
2018-12-31T11:25:08.750Z,103155.16
2018-12-31T11:27:38.065Z,103159.55
2018-12-31T11:30:08.166Z,103144.17
2018-12-31T11:32:37.566Z,103151.70
2018-12-31T11:35:07.292Z,103138.90
2018-12-31T11:37:36.559Z,103136.34
2018-12-31T11:40:06.804Z,103137.28
2018-12-31T11:42:36.123Z,103133.77
2018-12-31T11:45:06.114Z,103132.90
2018-12-31T11:47:35.443Z,103131.58
2018-12-31T11:50:04.747Z,103136.44
2018-12-31T11:52:34.258Z,103142.15
2018-12-31T11:55:03.668Z,103133.77
2018-12-31T11:57:32.827Z,103144.77
2018-12-31T12:00:02.168Z,103136.38
2018-12-31T12:02:31.532Z,103121.37
2018-12-31T12:05:00.852Z,103151.30
2018-12-31T12:07:30.137Z,103151.30
2018-12-31T12:09:59.653Z,103157.03
2018-12-31T12:12:28.908Z,103151.69
2018-12-31T12:14:58.129Z,103147.68
2018-12-31T12:17:27.480Z,103147.67
2018-12-31T12:19:56.754Z,103143.27
2018-12-31T12:22:26.077Z,103136.65
2018-12-31T12:24:55.389Z,103146.36
2018-12-31T12:27:24.653Z,103132.67
2018-12-31T12:29:53.940Z,103127.84
2018-12-31T12:32:23.260Z,103119.48
2018-12-31T12:34:52.518Z,103122.56
2018-12-31T12:37:21.889Z,103122.56
2018-12-31T12:39:51.261Z,103127.84
2018-12-31T12:42:20.537Z,103122.11
2018-12-31T12:44:49.858Z,103127.86
2018-12-31T12:47:19.130Z,103120.42
2018-12-31T12:49:48.488Z,103125.23
2018-12-31T12:52:17.765Z,103130.06
2018-12-31T12:54:47.104Z,103130.95
2018-12-31T12:57:16.473Z,103133.62
2018-12-31T12:59:45.749Z,103131.83
2018-12-31T13:02:15.013Z,103134.03
2018-12-31T13:04:44.314Z,103137.58
2018-12-31T13:07:13.672Z,103137.55
2018-12-31T13:09:42.967Z,103130.92
2018-12-31T13:12:12.385Z,103128.30
2018-12-31T13:14:41.650Z,103134.01
2018-12-31T13:17:10.959Z,103133.60
2018-12-31T13:19:40.298Z,103140.20
2018-12-31T13:22:09.570Z,103119.48
2018-12-31T13:24:39.187Z,103119.48
2018-12-31T13:27:08.514Z,103133.58
2018-12-31T13:29:37.918Z,103130.06
2018-12-31T13:32:07.317Z,103139.32
2018-12-31T13:34:36.587Z,103144.58
2018-12-31T13:37:05.890Z,103148.98
2018-12-31T13:39:35.205Z,103147.22
2018-12-31T13:42:04.530Z,103142.36
2018-12-31T13:44:33.904Z,103142.36
2018-12-31T13:47:03.231Z,103145.02
2018-12-31T13:49:32.593Z,103152.97
2018-12-31T13:52:01.855Z,103137.97
2018-12-31T13:54:31.242Z,103137.97
2018-12-31T13:57:00.547Z,103139.31
2018-12-31T13:59:29.859Z,103138.41
2018-12-31T14:01:59.105Z,103130.07
2018-12-31T14:04:28.540Z,103130.08
2018-12-31T14:06:57.813Z,103130.08
2018-12-31T14:09:27.154Z,103143.33
2018-12-31T14:11:56.385Z,103133.61
2018-12-31T14:14:25.755Z,103133.60
2018-12-31T14:16:55.033Z,103134.92
2018-12-31T14:19:24.365Z,103134.03
2018-12-31T14:21:53.744Z,103137.58
2018-12-31T14:24:23.043Z,103137.59
2018-12-31T14:27:00.323Z,103136.68
2018-12-31T14:29:21.733Z,103138.48
2018-12-31T14:31:51.050Z,103138.48
2018-12-31T14:34:20.336Z,103134.92
2018-12-31T14:36:49.666Z,103134.07
2018-12-31T14:39:19.041Z,103135.37
2018-12-31T14:41:48.377Z,103138.95
2018-12-31T14:44:17.621Z,103143.78
2018-12-31T14:46:46.963Z,103134.05
2018-12-31T14:49:16.248Z,103135.79
2018-12-31T14:51:45.565Z,103130.98
2018-12-31T14:54:14.949Z,103135.00
2018-12-31T14:56:44.242Z,103133.64
2018-12-31T14:59:13.534Z,103130.56
2018-12-31T15:01:42.835Z,103127.92
2018-12-31T15:04:12.126Z,103125.32
2018-12-31T15:06:41.457Z,103127.92
2018-12-31T15:09:10.754Z,103124.02
2018-12-31T15:11:40.088Z,103120.87
2018-12-31T15:14:09.454Z,103124.41
2018-12-31T15:16:38.734Z,103130.96
2018-12-31T15:19:07.999Z,103130.96
2018-12-31T15:21:37.369Z,103128.87
2018-12-31T15:24:06.791Z,103129.28
2018-12-31T15:26:36.042Z,103120.92
2018-12-31T15:29:05.326Z,103122.23
2018-12-31T15:31:34.665Z,103121.79
2018-12-31T15:34:03.950Z,103134.96
2018-12-31T15:36:33.259Z,103131.93
2018-12-31T15:39:02.545Z,103127.48
2018-12-31T15:41:31.840Z,103133.20
2018-12-31T15:44:01.139Z,103128.80
2018-12-31T15:46:30.477Z,103128.43
2018-12-31T15:48:59.773Z,103137.66
2018-12-31T15:51:29.086Z,103135.00
2018-12-31T15:53:58.368Z,103138.53
2018-12-31T15:56:27.678Z,103143.40
2018-12-31T15:58:56.990Z,103142.08
2018-12-31T16:01:26.295Z,103135.49
2018-12-31T16:03:55.581Z,103138.57
2018-12-31T16:06:24.868Z,103133.27
2018-12-31T16:08:54.189Z,103139.03
2018-12-31T16:11:23.466Z,103128.89
2018-12-31T16:13:52.791Z,103130.20
2018-12-31T16:16:22.120Z,103132.83
2018-12-31T16:18:51.379Z,103129.31
2018-12-31T16:21:20.692Z,103116.98
2018-12-31T16:23:49.983Z,103129.72
2018-12-31T16:26:19.254Z,103124.45
2018-12-31T16:28:48.585Z,103111.22
2018-12-31T16:31:17.883Z,103120.94
2018-12-31T16:33:47.213Z,103125.78
2018-12-31T16:36:16.521Z,103115.57
2018-12-31T16:38:45.805Z,103119.50
2018-12-31T16:41:15.061Z,103119.50
2018-12-31T16:43:44.447Z,103110.73
2018-12-31T16:46:13.722Z,103121.75
2018-12-31T16:48:42.994Z,103106.75
2018-12-31T16:51:12.327Z,103115.57
2018-12-31T16:53:41.602Z,103116.06
2018-12-31T16:56:10.869Z,103114.27
2018-12-31T16:58:40.159Z,103112.54
2018-12-31T17:01:09.483Z,103115.16
2018-12-31T17:03:38.802Z,103111.20
2018-12-31T17:06:08.114Z,103109.42
2018-12-31T17:08:37.389Z,103109.42
2018-12-31T17:11:06.719Z,103102.80
2018-12-31T17:13:36.000Z,103094.92
2018-12-31T17:16:05.309Z,103102.86
2018-12-31T17:18:34.755Z,103100.22
2018-12-31T17:21:04.011Z,103100.22
2018-12-31T17:23:33.300Z,103099.36
2018-12-31T17:26:02.583Z,103095.42
2018-12-31T17:28:31.856Z,103099.39
2018-12-31T17:31:01.144Z,103092.78
2018-12-31T17:33:30.443Z,103090.55
2018-12-31T17:35:59.733Z,103072.51
2018-12-31T17:38:28.979Z,103072.51
2018-12-31T17:40:58.267Z,103079.97
2018-12-31T17:43:27.519Z,103074.69
2018-12-31T17:45:56.820Z,103070.72
2018-12-31T17:48:26.076Z,103072.05
2018-12-31T17:50:55.363Z,103068.97
2018-12-31T17:53:24.630Z,103068.52
2018-12-31T17:55:54.052Z,103076.88
2018-12-31T17:58:23.306Z,103070.27
2018-12-31T18:00:52.602Z,103070.72
2018-12-31T18:03:21.880Z,103075.55
2018-12-31T18:05:51.221Z,103084.36
2018-12-31T18:08:20.511Z,103079.10
2018-12-31T18:10:49.835Z,103079.10
2018-12-31T18:13:19.190Z,103082.22
2018-12-31T18:15:48.459Z,103093.66
2018-12-31T18:18:17.745Z,103093.66
2018-12-31T18:20:47.149Z,103081.33
2018-12-31T18:23:16.496Z,103083.52
2018-12-31T18:25:45.831Z,103093.22
2018-12-31T18:28:15.109Z,103086.16
2018-12-31T18:30:44.543Z,103094.55
2018-12-31T18:33:13.796Z,103094.52
2018-12-31T18:35:43.142Z,103096.73
2018-12-31T18:38:12.460Z,103109.06
2018-12-31T18:40:41.734Z,103084.80
2018-12-31T18:43:10.991Z,103084.80
2018-12-31T18:45:40.306Z,103098.02
2018-12-31T18:48:09.616Z,103101.13
2018-12-31T18:50:38.844Z,103099.34
2018-12-31T18:53:08.120Z,103096.28
2018-12-31T18:55:37.457Z,103083.53
2018-12-31T18:58:06.744Z,103088.82
2018-12-31T19:00:36.038Z,103088.82
2018-12-31T19:03:05.598Z,103091.44
2018-12-31T19:05:35.884Z,103098.53
2018-12-31T19:08:05.182Z,103091.91
2018-12-31T19:10:34.496Z,103090.16
2018-12-31T19:13:03.759Z,103099.39
2018-12-31T19:15:33.047Z,103089.23
2018-12-31T19:18:02.394Z,103089.23
2018-12-31T19:20:31.870Z,103092.32
2018-12-31T19:23:01.159Z,103093.64
2018-12-31T19:25:30.431Z,103088.36
2018-12-31T19:27:59.704Z,103088.36
2018-12-31T19:30:28.953Z,103096.28
2018-12-31T19:32:58.255Z,103100.70
2018-12-31T19:35:27.479Z,103100.70
2018-12-31T19:37:56.746Z,103083.53
2018-12-31T19:40:26.091Z,103074.69
2018-12-31T19:42:55.448Z,103074.69
2018-12-31T19:45:24.679Z,103073.82
2018-12-31T19:47:55.705Z,103073.82
2018-12-31T19:50:23.212Z,103078.23
2018-12-31T19:52:52.505Z,103078.23
2018-12-31T19:55:21.811Z,103074.70
2018-12-31T19:57:51.066Z,103073.82
2018-12-31T20:00:20.434Z,103070.27
2018-12-31T20:02:49.690Z,103084.82
2018-12-31T20:05:18.950Z,103083.03
2018-12-31T20:07:48.223Z,103076.43
2018-12-31T20:10:17.501Z,103069.83
2018-12-31T20:12:46.749Z,103065.41
2018-12-31T20:15:16.049Z,103061.91
2018-12-31T20:17:45.294Z,103061.91
2018-12-31T20:20:14.543Z,103077.34
2018-12-31T20:22:43.829Z,103077.34
2018-12-31T20:25:13.079Z,103070.73
2018-12-31T20:27:42.342Z,103071.16
2018-12-31T20:30:11.587Z,103072.48
2018-12-31T20:32:40.850Z,103083.50
2018-12-31T20:35:10.089Z,103075.13
2018-12-31T20:37:39.405Z,103075.59
2018-12-31T20:40:08.706Z,103061.05
2018-12-31T20:42:37.995Z,103071.63
2018-12-31T20:45:07.273Z,103066.77
2018-12-31T20:47:36.630Z,103066.77
2018-12-31T20:50:06.148Z,103066.74
2018-12-31T20:52:35.587Z,103073.83
2018-12-31T20:55:05.117Z,103062.34
2018-12-31T20:57:34.417Z,103054.41
2018-12-31T21:00:03.749Z,103053.09
2018-12-31T21:02:33.031Z,103061.48
2018-12-31T21:05:02.295Z,103063.17
2018-12-31T21:07:31.550Z,103060.52
2018-12-31T21:10:00.830Z,103051.25
2018-12-31T21:12:30.085Z,103052.12
2018-12-31T21:14:59.365Z,103051.22
2018-12-31T21:17:28.743Z,103046.84
2018-12-31T21:19:58.037Z,103040.22
2018-12-31T21:22:27.302Z,103040.22
2018-12-31T21:24:56.602Z,103038.45
2018-12-31T21:27:25.855Z,103043.71
2018-12-31T21:29:55.143Z,103027.86
2018-12-31T21:32:24.400Z,103028.31
2018-12-31T21:34:53.672Z,103037.56
2018-12-31T21:37:22.915Z,103021.72
2018-12-31T21:39:52.179Z,103017.75
2018-12-31T21:42:21.450Z,103024.33
2018-12-31T21:44:50.713Z,103019.93
2018-12-31T21:47:22.399Z,103019.93
2018-12-31T21:49:49.225Z,103012.91
2018-12-31T21:52:18.497Z,103005.00
2018-12-31T21:54:47.743Z,103004.98
2018-12-31T21:57:18.230Z,102997.08
2018-12-31T21:59:46.281Z,103000.16
2018-12-31T22:02:15.566Z,103001.02
2018-12-31T22:04:44.861Z,102998.82
2018-12-31T22:07:14.129Z,102986.94
2018-12-31T22:09:43.405Z,102982.10
2018-12-31T22:12:12.768Z,102987.38
2018-12-31T22:14:42.041Z,102979.44
2018-12-31T22:17:11.337Z,102963.15
2018-12-31T22:19:40.609Z,102955.64
2018-12-31T22:22:09.886Z,102965.34
2018-12-31T22:24:39.218Z,102960.08
2018-12-31T22:27:08.539Z,102953.91
2018-12-31T22:29:37.821Z,102948.63
2018-12-31T22:32:07.069Z,102946.85
2018-12-31T22:34:36.358Z,102940.25
2018-12-31T22:37:05.615Z,102940.72
2018-12-31T22:39:34.943Z,102951.28
2018-12-31T22:42:04.221Z,102934.97
2018-12-31T22:44:33.482Z,102934.98
2018-12-31T22:47:02.774Z,102934.97
2018-12-31T22:49:32.032Z,102930.99
2018-12-31T22:52:01.324Z,102934.53
2018-12-31T22:54:30.556Z,102917.80
2018-12-31T22:56:59.844Z,102915.16
2018-12-31T22:59:29.148Z,102916.50
2018-12-31T23:01:58.407Z,102912.09
2018-12-31T23:04:27.692Z,102919.58
2018-12-31T23:07:00.687Z,102915.59
2018-12-31T23:09:29.920Z,102908.58
2018-12-31T23:11:59.164Z,102897.97
2018-12-31T23:14:28.425Z,102907.22
2018-12-31T23:17:00.900Z,102907.22
2018-12-31T23:19:30.180Z,102896.66
2018-12-31T23:21:59.423Z,102893.16
2018-12-31T23:24:28.742Z,102891.37
2018-12-31T23:26:58.208Z,102880.81
2018-12-31T23:29:27.387Z,102874.19
2018-12-31T23:31:56.686Z,102886.09
2018-12-31T23:34:26.054Z,102877.30
2018-12-31T23:36:55.329Z,102875.52
2018-12-31T23:39:24.640Z,102879.48
2018-12-31T23:41:53.902Z,102863.21
2018-12-31T23:44:23.164Z,102863.21
2018-12-31T23:46:52.497Z,102861.43
2018-12-31T23:49:21.720Z,102852.63
2018-12-31T23:51:50.986Z,102852.63
2018-12-31T23:54:20.255Z,102852.63
2018-12-31T23:56:50.626Z,102829.73
2018-12-31T23:59:18.774Z,102829.73
